createdAt,value
2023-02-18T00:01:59.154Z,58.77
2023-02-18T00:04:29.961Z,59.13
2023-02-18T00:07:00.976Z,59.18
2023-02-18T00:09:30.000Z,59.50
2023-02-18T00:12:00.663Z,59.40
2023-02-18T00:14:31.393Z,59.51
2023-02-18T00:17:02.381Z,59.42
2023-02-18T00:19:33.122Z,59.54
2023-02-18T00:22:03.819Z,59.45
2023-02-18T00:24:34.437Z,59.59
2023-02-18T00:27:05.315Z,59.58
2023-02-18T00:29:35.948Z,59.82
2023-02-18T00:32:06.757Z,59.74
2023-02-18T00:34:37.512Z,59.94
2023-02-18T00:37:08.174Z,60.21
2023-02-18T00:39:38.889Z,60.11
2023-02-18T00:42:09.558Z,60.32
2023-02-18T00:44:40.223Z,60.29
2023-02-18T00:47:11.298Z,60.23
2023-02-18T00:49:40.420Z,60.30
2023-02-18T00:52:11.083Z,60.49
2023-02-18T00:54:41.755Z,60.40
2023-02-18T00:57:12.401Z,60.61
2023-02-18T00:59:43.238Z,60.56
2023-02-18T01:02:13.944Z,60.70
2023-02-18T01:04:44.772Z,60.79
2023-02-18T01:07:13.990Z,60.93
2023-02-18T01:09:46.835Z,60.89
2023-02-18T01:12:17.821Z,60.72
2023-02-18T01:14:48.516Z,60.80
2023-02-18T01:17:19.187Z,60.88
2023-02-18T01:19:49.918Z,60.71
2023-02-18T01:22:20.473Z,60.74
2023-02-18T01:24:51.198Z,60.75
2023-02-18T01:27:21.818Z,60.97
2023-02-18T01:29:52.630Z,60.86
2023-02-18T01:32:22.148Z,60.91
2023-02-18T01:34:53.089Z,61.00
2023-02-18T01:37:23.804Z,61.09
2023-02-18T01:39:54.512Z,60.83
2023-02-18T01:42:27.325Z,60.91
2023-02-18T01:45:39.980Z,60.87
2023-02-18T01:48:13.821Z,60.86
2023-02-18T01:50:47.573Z,60.76
2023-02-18T01:53:21.788Z,60.76
2023-02-18T01:55:52.540Z,60.79
2023-02-18T01:58:24.148Z,60.81
2023-02-18T02:00:55.018Z,60.89
2023-02-18T02:03:25.745Z,60.87
2023-02-18T02:05:56.440Z,60.89
2023-02-18T02:08:27.884Z,60.98
2023-02-18T02:11:15.426Z,61.07
2023-02-18T02:14:01.834Z,61.18
2023-02-18T02:16:40.802Z,61.11
2023-02-18T02:19:30.522Z,61.06
2023-02-18T02:22:24.310Z,61.24
2023-02-18T02:25:13.581Z,61.28
2023-02-18T02:28:17.797Z,61.30
2023-02-18T02:31:14.287Z,61.52
2023-02-18T02:34:11.428Z,61.51
2023-02-18T02:36:50.420Z,61.69
2023-02-18T02:39:29.200Z,61.78
2023-02-18T02:42:10.086Z,61.82
2023-02-18T02:44:47.941Z,62.01
2023-02-18T02:47:27.430Z,62.03
2023-02-18T02:50:13.238Z,62.17
2023-02-18T02:52:50.010Z,62.41
2023-02-18T02:55:21.011Z,62.53
2023-02-18T02:57:53.860Z,62.55
2023-02-18T03:00:38.864Z,62.54
2023-02-18T03:03:31.879Z,62.60
2023-02-18T03:06:23.335Z,62.86
2023-02-18T03:09:03.109Z,62.88
2023-02-18T03:11:42.427Z,62.87
2023-02-18T03:14:19.244Z,63.08
2023-02-18T03:16:58.624Z,63.08
2023-02-18T03:19:32.950Z,63.15
2023-02-18T03:22:11.197Z,63.24
2023-02-18T03:24:45.966Z,63.25
2023-02-18T03:27:21.569Z,63.34
2023-02-18T03:29:57.845Z,63.36
2023-02-18T03:32:29.564Z,63.26
2023-02-18T03:35:06.062Z,63.42
2023-02-18T03:37:42.122Z,63.41
2023-02-18T03:40:13.970Z,63.30
2023-02-18T03:42:44.712Z,63.41
2023-02-18T03:45:15.322Z,63.22
2023-02-18T03:47:46.148Z,63.19
2023-02-18T03:50:17.204Z,63.13
2023-02-18T03:52:46.364Z,63.36
2023-02-18T03:55:17.149Z,63.27
2023-02-18T03:57:47.780Z,63.34
2023-02-18T04:00:19.599Z,63.45
2023-02-18T04:02:50.280Z,63.53
2023-02-18T04:05:21.066Z,63.54
2023-02-18T04:07:51.796Z,63.56
2023-02-18T04:10:22.443Z,63.62
2023-02-18T04:12:53.454Z,63.53
2023-02-18T04:15:24.088Z,63.69
2023-02-18T04:17:54.822Z,63.73
2023-02-18T04:20:25.503Z,63.78
2023-02-18T04:22:56.222Z,63.84
2023-02-18T04:25:27.042Z,63.84
2023-02-18T04:27:57.742Z,63.91
2023-02-18T04:30:28.427Z,63.89
2023-02-18T04:32:59.188Z,64.11
2023-02-18T04:35:29.914Z,64.06
2023-02-18T04:38:00.575Z,64.05
2023-02-18T04:40:31.283Z,64.13
2023-02-18T04:43:02.310Z,64.06
2023-02-18T04:45:33.080Z,64.08
2023-02-18T04:48:04.137Z,64.24
2023-02-18T04:50:34.818Z,64.27
2023-02-18T04:53:05.542Z,64.52
2023-02-18T04:55:36.149Z,64.60
2023-02-18T04:58:06.868Z,64.53
2023-02-18T05:00:37.517Z,64.71
2023-02-18T05:03:08.289Z,64.63
2023-02-18T05:05:39.419Z,64.74
2023-02-18T05:08:08.915Z,64.84
2023-02-18T05:10:40.505Z,64.78
2023-02-18T05:13:11.184Z,64.87
2023-02-18T05:15:42.206Z,64.93
2023-02-18T05:18:12.874Z,65.01
2023-02-18T05:20:43.612Z,64.88
2023-02-18T05:23:14.263Z,65.16
2023-02-18T05:25:44.898Z,65.17
2023-02-18T05:28:15.668Z,65.12
2023-02-18T05:30:46.427Z,65.25
2023-02-18T05:33:17.143Z,65.09
2023-02-18T05:35:48.065Z,65.19
2023-02-18T05:38:18.736Z,65.05
2023-02-18T05:40:49.519Z,65.17
2023-02-18T05:43:20.225Z,65.17
2023-02-18T05:45:50.890Z,65.02
2023-02-18T05:48:21.499Z,65.07
2023-02-18T05:50:54.150Z,65.02
2023-02-18T05:53:24.808Z,65.06
2023-02-18T05:55:55.450Z,65.00
2023-02-18T05:58:26.164Z,64.98
2023-02-18T06:00:56.799Z,64.99
2023-02-18T06:03:27.522Z,65.02
2023-02-18T06:05:58.795Z,65.05
2023-02-18T06:08:29.574Z,65.03
2023-02-18T06:11:00.294Z,65.28
2023-02-18T06:13:30.932Z,65.19
2023-02-18T06:16:01.993Z,65.26
2023-02-18T06:18:32.729Z,65.30
2023-02-18T06:21:06.241Z,65.35
2023-02-18T06:23:36.882Z,65.63
2023-02-18T06:26:08.064Z,65.50
2023-02-18T06:28:39.131Z,65.57
2023-02-18T06:31:10.043Z,65.60
2023-02-18T06:33:39.403Z,65.68
2023-02-18T06:36:13.452Z,65.61
2023-02-18T06:38:45.378Z,65.61
2023-02-18T06:41:16.605Z,65.61
2023-02-18T06:43:47.608Z,65.64
2023-02-18T06:46:18.389Z,65.63
2023-02-18T06:48:49.233Z,65.55
2023-02-18T06:51:19.844Z,65.51
2023-02-18T06:53:50.497Z,65.44
2023-02-18T06:56:22.074Z,65.54
2023-02-18T06:58:52.826Z,65.44
2023-02-18T07:01:23.448Z,65.35
2023-02-18T07:03:54.157Z,65.11
2023-02-18T07:06:24.959Z,64.96
2023-02-18T07:08:55.664Z,64.69
2023-02-18T07:11:26.350Z,64.50
2023-02-18T07:13:56.995Z,64.39
2023-02-18T07:16:27.762Z,64.08
2023-02-18T07:18:58.506Z,63.89
2023-02-18T07:21:29.380Z,63.73
2023-02-18T07:24:00.032Z,63.79
2023-02-18T07:26:30.730Z,63.28
2023-02-18T07:29:01.462Z,62.89
2023-02-18T07:31:32.220Z,62.54
2023-02-18T07:34:03.061Z,62.33
2023-02-18T07:36:33.716Z,61.53
2023-02-18T07:39:04.495Z,61.21
2023-02-18T07:41:35.439Z,60.74
2023-02-18T07:44:06.446Z,60.37
2023-02-18T07:46:39.325Z,60.08
2023-02-18T07:49:10.047Z,60.83
2023-02-18T07:51:40.702Z,59.70
2023-02-18T07:54:11.342Z,58.82
2023-02-18T07:56:42.038Z,58.39
2023-02-18T07:59:13.256Z,58.40
2023-02-18T08:01:45.271Z,58.68
2023-02-18T08:04:16.142Z,58.50
2023-02-18T08:06:49.537Z,57.17
2023-02-18T08:09:20.650Z,57.44
2023-02-18T08:11:51.317Z,56.48
2023-02-18T08:14:21.985Z,56.81
2023-02-18T08:16:52.748Z,57.05
2023-02-18T08:19:23.369Z,57.07
2023-02-18T08:21:54.037Z,56.78
2023-02-18T08:24:24.764Z,56.38
2023-02-18T08:27:00.796Z,55.62
2023-02-18T08:29:32.312Z,56.67
2023-02-18T08:32:03.150Z,55.88
2023-02-18T08:34:33.968Z,55.03
2023-02-18T08:37:04.868Z,54.95
2023-02-18T08:39:39.600Z,55.56
2023-02-18T08:42:10.580Z,55.03
2023-02-18T08:44:41.414Z,54.28
2023-02-18T08:48:16.969Z,54.63
2023-02-18T08:50:02.997Z,52.87
2023-02-18T08:52:33.684Z,52.23
2023-02-18T08:55:06.272Z,51.85
2023-02-18T08:57:36.940Z,51.29
2023-02-18T09:00:16.051Z,52.44
2023-02-18T09:02:46.743Z,52.32
2023-02-18T09:05:17.851Z,51.66
2023-02-18T09:07:48.464Z,53.18
2023-02-18T09:10:19.154Z,53.03
2023-02-18T09:12:49.991Z,52.82
2023-02-18T09:15:20.742Z,53.03
2023-02-18T09:17:51.834Z,52.96
2023-02-18T09:20:29.901Z,52.36
2023-02-18T09:23:00.726Z,52.66
2023-02-18T09:25:31.421Z,53.26
2023-02-18T09:28:02.169Z,52.79
2023-02-18T09:30:32.895Z,52.71
2023-02-18T09:33:03.677Z,51.63
2023-02-18T09:35:38.474Z,52.65
2023-02-18T09:38:10.252Z,52.97
2023-02-18T09:40:45.120Z,52.97
2023-02-18T09:43:23.692Z,52.42
2023-02-18T09:45:55.298Z,52.21
2023-02-18T09:48:31.498Z,51.93
2023-02-18T09:51:02.366Z,51.98
2023-02-18T09:53:33.089Z,52.68
2023-02-18T09:56:02.518Z,53.30
2023-02-18T09:58:35.039Z,52.58
2023-02-18T10:01:13.870Z,53.21
2023-02-18T10:03:44.898Z,52.60
2023-02-18T10:06:17.718Z,53.40
2023-02-18T10:08:50.941Z,53.11
2023-02-18T10:11:28.716Z,52.94
2023-02-18T10:14:00.894Z,52.63
2023-02-18T10:16:31.854Z,53.04
2023-02-18T10:19:15.002Z,52.63
2023-02-18T10:21:49.741Z,53.27
2023-02-18T10:24:28.849Z,53.38
2023-02-18T10:27:00.522Z,53.46
2023-02-18T10:29:31.276Z,53.25
2023-02-18T10:32:12.782Z,52.75
2023-02-18T10:34:47.520Z,52.91
2023-02-18T10:37:34.910Z,53.08
2023-02-18T10:40:18.553Z,53.79
2023-02-18T10:43:01.993Z,54.04
2023-02-18T10:45:43.682Z,54.29
2023-02-18T10:48:26.476Z,53.50
2023-02-18T10:50:59.995Z,54.30
2023-02-18T10:53:36.017Z,54.94
2023-02-18T10:56:08.442Z,55.19
2023-02-18T10:58:46.570Z,55.61
2023-02-18T11:01:21.568Z,56.00
2023-02-18T11:04:07.415Z,57.01
2023-02-18T11:06:43.942Z,57.72
2023-02-18T11:09:31.915Z,58.56
2023-02-18T11:12:13.617Z,58.88
2023-02-18T11:14:46.704Z,59.80
2023-02-18T11:17:27.708Z,60.14
2023-02-18T11:20:00.263Z,60.57
2023-02-18T11:22:34.079Z,61.26
2023-02-18T11:25:20.120Z,62.10
2023-02-18T11:27:55.022Z,63.75
2023-02-18T11:30:31.194Z,63.93
2023-02-18T11:33:06.730Z,64.28
2023-02-18T11:35:38.127Z,65.35
2023-02-18T11:38:35.746Z,65.71
2023-02-18T11:41:10.671Z,65.51
2023-02-18T11:43:46.544Z,65.84
2023-02-18T11:46:19.190Z,65.26
2023-02-18T11:48:50.820Z,65.27
2023-02-18T11:51:24.909Z,65.74
2023-02-18T11:54:04.428Z,65.59
2023-02-18T11:56:36.387Z,66.29
2023-02-18T11:59:10.608Z,66.07
2023-02-18T12:01:46.818Z,66.20
2023-02-18T12:04:19.074Z,66.22
2023-02-18T12:07:01.132Z,66.65
2023-02-18T12:09:36.616Z,66.32
2023-02-18T12:12:13.343Z,67.10
2023-02-18T12:14:45.236Z,66.62
2023-02-18T12:17:30.396Z,67.50
2023-02-18T12:20:15.959Z,67.32
2023-02-18T12:22:51.964Z,67.99
2023-02-18T12:25:34.727Z,68.49
2023-02-18T12:28:23.942Z,67.93
2023-02-18T12:31:13.448Z,68.74
2023-02-18T12:33:58.143Z,68.45
2023-02-18T12:36:38.664Z,68.69
2023-02-18T12:39:18.219Z,68.66
2023-02-18T12:42:12.517Z,69.24
2023-02-18T12:44:56.601Z,69.05
2023-02-18T12:47:42.810Z,69.11
2023-02-18T12:50:39.365Z,69.35
2023-02-18T12:53:32.685Z,69.54
2023-02-18T12:56:32.035Z,69.63
2023-02-18T12:59:12.947Z,69.55
2023-02-18T13:01:54.450Z,69.72
2023-02-18T13:04:36.834Z,69.84
2023-02-18T13:07:35.193Z,69.79
2023-02-18T13:10:34.435Z,69.90
2023-02-18T13:13:11.600Z,69.93
2023-02-18T13:15:47.367Z,70.15
2023-02-18T13:18:22.318Z,70.28
2023-02-18T13:20:56.263Z,70.20
2023-02-18T13:23:32.196Z,70.41
2023-02-18T13:26:05.757Z,70.92
2023-02-18T13:28:43.368Z,70.58
2023-02-18T13:31:25.451Z,71.14
2023-02-18T13:34:02.084Z,71.34
2023-02-18T13:36:46.972Z,71.24
2023-02-18T13:39:21.665Z,71.12
2023-02-18T13:42:10.162Z,71.07
2023-02-18T13:45:05.194Z,71.74
2023-02-18T13:47:41.761Z,71.57
2023-02-18T13:50:31.556Z,71.79
2023-02-18T13:53:23.837Z,71.72
2023-02-18T13:55:59.026Z,71.59
2023-02-18T13:58:36.284Z,71.70
2023-02-18T14:01:13.666Z,71.65
2023-02-18T14:03:56.561Z,71.65
2023-02-18T14:06:29.327Z,71.62
2023-02-18T14:09:36.278Z,71.61
2023-02-18T14:12:26.168Z,71.57
2023-02-18T14:14:58.572Z,71.61
2023-02-18T14:17:40.578Z,71.38
2023-02-18T14:20:47.820Z,71.36
2023-02-18T14:23:54.950Z,71.26
2023-02-18T14:26:30.747Z,71.36
2023-02-18T14:29:10.967Z,71.20
2023-02-18T14:31:54.629Z,71.10
2023-02-18T14:35:08.580Z,71.17
2023-02-18T14:38:01.691Z,71.20
2023-02-18T14:41:04.636Z,71.17
2023-02-18T14:44:17.074Z,71.19
2023-02-18T14:47:05.969Z,71.60
2023-02-18T14:49:43.520Z,71.92
2023-02-18T14:52:28.771Z,71.93
2023-02-18T14:55:00.939Z,71.83
2023-02-18T14:57:39.165Z,72.13
2023-02-18T15:00:19.926Z,72.21
2023-02-18T15:02:53.058Z,72.32
2023-02-18T15:05:25.872Z,72.34
2023-02-18T15:08:04.306Z,73.04
2023-02-18T15:10:40.526Z,73.57
2023-02-18T15:13:17.239Z,74.46
2023-02-18T15:15:51.295Z,74.82
2023-02-18T15:18:31.688Z,75.78
2023-02-18T15:21:04.719Z,75.39
2023-02-18T15:23:38.386Z,76.52
2023-02-18T15:26:13.935Z,77.43
2023-02-18T15:28:54.818Z,76.01
2023-02-18T15:31:29.422Z,76.39
2023-02-18T15:34:00.340Z,77.33
2023-02-18T15:36:33.357Z,77.38
2023-02-18T15:39:04.223Z,76.80
2023-02-18T15:41:35.230Z,76.67
2023-02-18T15:44:07.715Z,76.49
2023-02-18T15:46:38.843Z,76.62
2023-02-18T15:49:08.286Z,76.92
2023-02-18T15:51:42.154Z,77.23
2023-02-18T15:54:17.645Z,76.98
2023-02-18T15:56:53.453Z,76.67
2023-02-18T15:59:27.889Z,76.81
2023-02-18T16:02:11.961Z,76.65
2023-02-18T16:04:46.143Z,76.65
2023-02-18T16:07:25.034Z,76.67
2023-02-18T16:10:17.042Z,77.15
2023-02-18T16:12:50.261Z,78.89
2023-02-18T16:15:26.531Z,78.85
2023-02-18T16:17:57.803Z,78.68
2023-02-18T16:20:32.840Z,78.04
2023-02-18T16:23:10.897Z,77.78
2023-02-18T16:25:45.851Z,77.19
2023-02-18T16:28:22.984Z,77.70
2023-02-18T16:30:53.892Z,78.27
2023-02-18T16:33:24.738Z,77.42
2023-02-18T16:35:55.685Z,77.34
2023-02-18T16:38:26.980Z,78.36
2023-02-18T16:40:57.759Z,77.37
2023-02-18T16:43:29.267Z,77.12
2023-02-18T16:46:07.568Z,77.18
2023-02-18T16:48:41.034Z,77.15
2023-02-18T16:51:16.436Z,77.77
2023-02-18T16:53:47.539Z,77.27
2023-02-18T16:56:18.066Z,76.92
2023-02-18T16:58:49.048Z,77.90
2023-02-18T17:01:24.949Z,77.63
2023-02-18T17:03:56.900Z,77.33
2023-02-18T17:06:28.175Z,78.33
2023-02-18T17:08:59.260Z,77.38
2023-02-18T17:11:32.408Z,78.34
2023-02-18T17:14:03.365Z,78.79
2023-02-18T17:16:34.099Z,79.30
2023-02-18T17:19:04.816Z,78.71
2023-02-18T17:21:35.516Z,78.80
2023-02-18T17:24:06.919Z,79.04
2023-02-18T17:26:37.611Z,78.33
2023-02-18T17:29:08.599Z,78.74
2023-02-18T17:31:43.118Z,78.55
2023-02-18T17:34:20.967Z,77.89
2023-02-18T17:36:51.665Z,78.02
2023-02-18T17:39:22.863Z,78.15
2023-02-18T17:41:53.501Z,77.96
2023-02-18T17:44:24.890Z,77.65
2023-02-18T17:46:55.700Z,77.91
2023-02-18T17:49:26.422Z,78.70
2023-02-18T17:51:58.178Z,78.54
2023-02-18T17:54:29.071Z,78.98
2023-02-18T17:56:59.845Z,78.24
2023-02-18T17:59:30.495Z,78.47
2023-02-18T18:02:01.181Z,79.00
2023-02-18T18:04:32.891Z,78.83
2023-02-18T18:07:03.639Z,78.14
2023-02-18T18:09:34.388Z,78.18
2023-02-18T18:12:05.778Z,78.34
2023-02-18T18:14:36.538Z,78.15
2023-02-18T18:17:11.833Z,78.11
2023-02-18T18:19:42.545Z,78.25
2023-02-18T18:22:13.347Z,79.17
2023-02-18T18:24:44.210Z,78.99
2023-02-18T18:27:14.920Z,79.77
2023-02-18T18:29:45.760Z,79.44
2023-02-18T18:32:16.442Z,79.60
2023-02-18T18:34:48.983Z,79.59
2023-02-18T18:37:19.874Z,79.29
2023-02-18T18:39:50.504Z,79.89
2023-02-18T18:42:21.149Z,79.94
2023-02-18T18:44:51.784Z,79.87
2023-02-18T18:47:22.477Z,80.32
2023-02-18T18:49:53.086Z,79.59
2023-02-18T18:52:24.189Z,79.00
2023-02-18T18:54:54.802Z,78.95
2023-02-18T18:57:25.610Z,79.58
2023-02-18T18:59:56.273Z,79.29
2023-02-18T19:02:27.114Z,78.98
2023-02-18T19:04:57.817Z,79.21
2023-02-18T19:07:28.585Z,78.65
2023-02-18T19:09:59.236Z,78.63
2023-02-18T19:12:29.922Z,78.49
2023-02-18T19:15:00.561Z,78.38
2023-02-18T19:17:31.361Z,78.34
2023-02-18T19:20:02.143Z,78.23
2023-02-18T19:22:32.839Z,78.12
2023-02-18T19:25:03.523Z,77.91
2023-02-18T19:27:36.133Z,78.42
2023-02-18T19:30:11.799Z,77.89
2023-02-18T19:32:42.636Z,77.95
2023-02-18T19:35:13.292Z,77.91
2023-02-18T19:37:43.969Z,77.86
2023-02-18T19:40:16.609Z,77.91
2023-02-18T19:42:48.140Z,77.79
2023-02-18T19:45:19.947Z,77.79
2023-02-18T19:47:54.383Z,77.74
2023-02-18T19:50:26.528Z,77.76
2023-02-18T19:53:04.944Z,77.39
2023-02-18T19:55:35.967Z,77.41
2023-02-18T19:58:05.146Z,77.41
2023-02-18T20:00:36.063Z,77.44
2023-02-18T20:03:07.068Z,77.55
2023-02-18T20:05:39.553Z,77.49
2023-02-18T20:08:10.580Z,77.44
2023-02-18T20:10:41.479Z,77.57
2023-02-18T20:13:12.573Z,77.50
2023-02-18T20:15:41.697Z,77.57
2023-02-18T20:18:12.679Z,77.45
2023-02-18T20:20:48.624Z,77.37
2023-02-18T20:23:19.852Z,77.30
2023-02-18T20:25:50.649Z,77.39
2023-02-18T20:28:21.441Z,77.51
2023-02-18T20:31:02.789Z,77.28
2023-02-18T20:33:33.573Z,77.44
2023-02-18T20:36:03.969Z,77.38
2023-02-18T20:38:34.815Z,77.54
2023-02-18T20:41:11.248Z,77.44
2023-02-18T20:43:42.373Z,77.47
2023-02-18T20:46:15.230Z,77.48
2023-02-18T20:48:46.818Z,77.47
2023-02-18T20:51:19.069Z,77.24
2023-02-18T20:53:51.626Z,77.27
2023-02-18T20:56:22.748Z,77.36
2023-02-18T20:58:51.867Z,77.35
2023-02-18T21:01:22.744Z,77.40
2023-02-18T21:03:53.477Z,77.40
2023-02-18T21:06:25.276Z,77.44
2023-02-18T21:08:56.103Z,77.47
2023-02-18T21:11:27.782Z,77.43
2023-02-18T21:13:58.892Z,77.30
2023-02-18T21:16:28.344Z,77.40
2023-02-18T21:18:59.221Z,77.32
2023-02-18T21:21:30.097Z,77.50
2023-02-18T21:24:00.761Z,77.32
2023-02-18T21:26:31.416Z,77.50
2023-02-18T21:29:04.677Z,77.57
2023-02-18T21:31:37.343Z,77.52
2023-02-18T21:34:10.894Z,77.65
2023-02-18T21:36:42.479Z,77.70
2023-02-18T21:39:13.436Z,77.71
2023-02-18T21:41:44.069Z,77.71
2023-02-18T21:44:14.770Z,77.69
2023-02-18T21:46:45.450Z,77.67
2023-02-18T21:49:16.389Z,77.61
2023-02-18T21:51:48.705Z,77.66
2023-02-18T21:54:21.188Z,77.58
2023-02-18T21:56:52.181Z,77.55
2023-02-18T21:59:22.225Z,77.61
2023-02-18T22:01:52.929Z,77.65
2023-02-18T22:04:23.634Z,77.71
2023-02-18T22:06:54.352Z,77.83
2023-02-18T22:09:25.006Z,77.82
2023-02-18T22:11:55.932Z,77.75
2023-02-18T22:14:26.810Z,77.79
2023-02-18T22:16:58.122Z,77.89
2023-02-18T22:19:29.095Z,77.76
2023-02-18T22:21:59.721Z,77.75
2023-02-18T22:24:30.961Z,77.92
2023-02-18T22:27:02.188Z,77.89
2023-02-18T22:29:32.965Z,77.94
2023-02-18T22:32:03.998Z,77.93
2023-02-18T22:34:34.786Z,77.94
2023-02-18T22:37:05.794Z,77.85
2023-02-18T22:39:36.483Z,77.94
2023-02-18T22:42:07.343Z,77.93
2023-02-18T22:44:38.194Z,77.87
2023-02-18T22:47:08.838Z,77.91
2023-02-18T22:49:39.604Z,77.99
2023-02-18T22:52:10.639Z,77.96
2023-02-18T22:54:41.330Z,77.80
2023-02-18T22:57:11.993Z,77.92
2023-02-18T22:59:42.672Z,77.78
2023-02-18T23:02:13.269Z,77.97
2023-02-18T23:04:44.209Z,77.95
2023-02-18T23:07:13.584Z,77.83
2023-02-18T23:09:44.280Z,77.95
2023-02-18T23:12:15.243Z,77.95
2023-02-18T23:14:45.890Z,77.94
2023-02-18T23:17:16.632Z,77.87
2023-02-18T23:19:49.155Z,77.89
2023-02-18T23:22:26.294Z,77.94
2023-02-18T23:24:57.297Z,78.05
2023-02-18T23:27:26.463Z,78.14
2023-02-18T23:29:57.116Z,78.02
2023-02-18T23:32:27.881Z,78.14
2023-02-18T23:34:58.629Z,78.13
2023-02-18T23:37:29.281Z,78.26
2023-02-18T23:39:59.941Z,78.08
2023-02-18T23:42:30.682Z,78.15
2023-02-18T23:45:01.383Z,78.00
2023-02-18T23:47:32.006Z,77.98
2023-02-18T23:50:02.703Z,78.01
2023-02-18T23:52:33.466Z,78.08
2023-02-18T23:55:06.122Z,78.07
2023-02-18T23:57:36.758Z,78.04
